Time;durP1;ratioP1;P1;durP2;ratioP2;P2;SDS_P1;SDS_P2;PMS_P1;PMS_P2;Temp;Humidity;BMP_temperature;BMP_pressure;BME280_temperature;BME280_humidity;BME280_pressure;Samples;Min_cycle;Max_cycle;Signal;HPM_P1;HPM_P2
2024/04/13 00:00:30;;;;;;;22.13;19.92;;;18.10;72.70;;;;;;5401753;26;111342;-50
2024/04/13 00:02:56;;;;;;;22.65;20.40;;;18.10;72.50;;;;;;5401409;26;110879;-52
2024/04/13 00:05:22;;;;;;;25.73;21.50;;;17.90;73.00;;;;;;5400801;26;111104;-51
2024/04/13 00:07:47;;;;;;;22.92;20.30;;;17.90;72.60;;;;;;5402345;26;110854;-50
2024/04/13 00:10:13;;;;;;;22.58;20.15;;;17.90;72.40;;;;;;5401534;26;111917;-50
2024/04/13 00:12:39;;;;;;;25.27;20.20;;;18.10;72.00;;;;;;5401536;25;110751;-50
2024/04/13 00:15:05;;;;;;;24.67;19.58;;;18.10;71.80;;;;;;5402456;26;110700;-51
2024/04/13 00:17:32;;;;;;;24.85;19.25;;;18.10;71.80;;;;;;5402479;26;111102;-53
2024/04/13 00:19:57;;;;;;;23.35;19.65;;;18.00;71.90;;;;;;5401195;26;112415;-50
2024/04/13 00:22:23;;;;;;;22.77;19.35;;;17.90;72.40;;;;;;5401482;26;110289;-52
2024/04/13 00:24:49;;;;;;;23.40;19.55;;;17.90;72.90;;;;;;5400572;26;110651;-50
2024/04/13 00:27:16;;;;;;;21.13;19.13;;;17.90;72.60;;;;;;5376111;26;110722;-51
2024/04/13 00:29:42;;;;;;;24.67;19.20;;;17.90;72.50;;;;;;5365556;26;111015;-52
2024/04/13 00:32:08;;;;;;;22.33;17.92;;;17.90;72.60;;;;;;5373887;26;111411;-51
2024/04/13 00:34:34;;;;;;;19.02;17.13;;;17.90;71.90;;;;;;5400374;26;110579;-50
2024/04/13 00:37:06;;;;;;;20.48;17.38;;;18.00;71.70;;;;;;5379186;26;111097;-50
2024/04/13 00:39:32;;;;;;;25.40;16.88;;;17.90;71.30;;;;;;5401511;25;111064;-52
2024/04/13 00:41:58;;;;;;;18.85;16.00;;;17.90;71.10;;;;;;5401256;26;113576;-50
2024/04/13 00:44:25;;;;;;;18.63;15.82;;;17.90;71.00;;;;;;5380961;26;110464;-50
2024/04/13 00:46:55;;;;;;;21.15;16.42;;;17.90;71.10;;;;;;5398347;25;110886;-50
2024/04/13 00:49:20;;;;;;;18.20;16.30;;;17.80;71.00;;;;;;5401336;26;111106;-50
2024/04/13 00:51:48;;;;;;;20.73;15.10;;;17.80;70.80;;;;;;5401008;26;110829;-51
2024/04/13 00:54:18;;;;;;;17.33;14.98;;;17.80;70.90;;;;;;5402173;26;111000;-50
2024/04/13 00:56:46;;;;;;;16.55;14.80;;;17.80;70.80;;;;;;5402014;26;110635;-50
2024/04/13 00:59:12;;;;;;;18.00;13.98;;;17.90;70.50;;;;;;5400922;26;113671;-52
2024/04/13 01:01:38;;;;;;;19.23;13.60;;;17.80;70.30;;;;;;5377279;26;110716;-50
2024/04/13 01:04:05;;;;;;;16.20;12.43;;;17.70;70.40;;;;;;5400618;26;110563;-50
2024/04/13 01:06:32;;;;;;;16.63;11.80;;;17.80;69.90;;;;;;5402108;26;110811;-50
2024/04/13 01:08:59;;;;;;;14.85;11.50;;;17.70;69.70;;;;;;5400681;26;111196;-51
2024/04/13 01:11:26;;;;;;;13.43;10.65;;;17.70;69.30;;;;;;5400874;26;110456;-51
2024/04/13 01:13:54;;;;;;;13.52;10.85;;;17.80;69.30;;;;;;5401618;26;110460;-51
2024/04/13 01:16:30;;;;;;;12.38;10.95;;;17.80;69.30;;;;;;5400025;26;110593;-51
2024/04/13 01:18:55;;;;;;;17.77;11.27;;;17.60;69.40;;;;;;5400367;26;112468;-51
2024/04/13 01:21:22;;;;;;;13.75;11.13;;;17.70;69.60;;;;;;5400736;25;111764;-50
2024/04/13 01:24:13;;;;;;;11.82;10.60;;;17.70;69.60;;;;;;5401769;26;110849;-50
2024/04/13 01:26:38;;;;;;;15.10;11.38;;;17.70;69.60;;;;;;5401147;26;110816;-50
2024/04/13 01:29:05;;;;;;;14.40;11.50;;;17.60;70.00;;;;;;5400162;26;112661;-50
2024/04/13 01:31:34;;;;;;;13.98;11.52;;;17.40;70.40;;;;;;5400471;26;110504;-50
2024/04/13 01:33:59;;;;;;;14.35;11.77;;;17.40;70.70;;;;;;5401452;26;111241;-53
2024/04/13 01:36:26;;;;;;;13.00;11.50;;;17.50;70.70;;;;;;5375654;26;110754;-51
2024/04/13 01:38:52;;;;;;;18.77;11.95;;;17.40;70.90;;;;;;5400150;26;112717;-52
2024/04/13 01:41:18;;;;;;;16.33;12.10;;;17.40;71.10;;;;;;5400004;26;111674;-51
2024/04/13 01:43:44;;;;;;;13.15;11.57;;;17.40;71.30;;;;;;5402121;26;110735;-50
2024/04/13 01:46:09;;;;;;;14.63;11.50;;;17.50;70.80;;;;;;5403998;25;110565;-51
2024/04/13 01:48:35;;;;;;;16.83;11.70;;;17.50;71.00;;;;;;5403039;25;111112;-50
2024/04/13 01:51:01;;;;;;;14.45;11.80;;;17.40;71.30;;;;;;5403087;26;110570;-51
2024/04/13 01:53:26;;;;;;;13.18;11.20;;;17.50;71.40;;;;;;5403950;26;110839;-52
2024/04/13 01:55:52;;;;;;;13.40;11.85;;;17.60;71.30;;;;;;5404067;26;110528;-50
2024/04/13 01:58:18;;;;;;;15.77;11.95;;;17.60;71.40;;;;;;5402569;26;111126;-51
2024/04/13 02:00:43;;;;;;;14.57;11.75;;;17.50;71.50;;;;;;5402937;26;110759;-51
2024/04/13 02:03:09;;;;;;;14.40;12.18;;;17.50;71.50;;;;;;5403739;26;110820;-51
2024/04/13 02:05:35;;;;;;;18.17;13.43;;;17.40;71.80;;;;;;5403922;26;110529;-50
2024/04/13 02:08:03;;;;;;;17.55;12.70;;;17.40;71.80;;;;;;5402541;25;112441;-50
2024/04/13 02:10:28;;;;;;;18.58;12.30;;;17.40;71.90;;;;;;5382012;26;111512;-50
2024/04/13 02:12:54;;;;;;;19.27;12.00;;;17.40;72.00;;;;;;5403717;26;110449;-50
2024/04/13 02:15:19;;;;;;;16.00;12.10;;;17.40;71.90;;;;;;5403583;26;110693;-50
2024/04/13 02:17:45;;;;;;;13.45;12.00;;;17.50;71.60;;;;;;5402573;26;111056;-52
2024/04/13 02:20:15;;;;;;;14.10;12.65;;;17.40;72.00;;;;;;5402195;26;110836;-51
2024/04/13 02:22:41;;;;;;;14.30;12.23;;;17.30;72.10;;;;;;5403882;26;110418;-51
2024/04/13 02:25:08;;;;;;;15.95;12.23;;;17.20;72.60;;;;;;5403782;25;110455;-50
2024/04/13 02:27:34;;;;;;;16.75;12.35;;;17.20;72.40;;;;;;5402765;25;111763;-50
2024/04/13 02:30:01;;;;;;;15.07;12.48;;;17.20;72.50;;;;;;5402655;26;111604;-51
2024/04/13 02:32:27;;;;;;;14.88;13.00;;;17.10;72.70;;;;;;5403449;26;110645;-50
2024/04/13 02:34:53;;;;;;;15.95;12.88;;;17.00;72.90;;;;;;5393089;26;110484;-54
2024/04/13 02:37:19;;;;;;;14.15;12.23;;;17.10;72.40;;;;;;5387861;26;112562;-50
2024/04/13 02:39:44;;;;;;;18.20;12.68;;;17.20;72.10;;;;;;5402291;26;111555;-53
2024/04/13 02:42:10;;;;;;;15.45;11.95;;;17.20;72.00;;;;;;5403642;26;110529;-50
2024/04/13 02:44:36;;;;;;;14.80;11.55;;;17.10;71.90;;;;;;5403327;26;110719;-51
2024/04/13 02:47:01;;;;;;;14.32;11.93;;;17.10;72.20;;;;;;5402510;26;111640;-51
2024/04/13 02:49:28;;;;;;;16.23;11.55;;;17.10;72.20;;;;;;5402554;26;110817;-50
2024/04/13 02:51:54;;;;;;;13.23;11.88;;;17.10;71.70;;;;;;5403252;25;110665;-52
2024/04/13 02:54:19;;;;;;;12.77;11.48;;;16.90;72.10;;;;;;5403586;26;110600;-51
2024/04/13 02:56:45;;;;;;;17.92;12.27;;;17.00;72.20;;;;;;5401199;26;111179;-50
2024/04/13 02:59:11;;;;;;;16.20;11.73;;;17.10;71.90;;;;;;5402167;26;111603;-50
2024/04/13 03:01:37;;;;;;;13.40;11.98;;;16.90;72.10;;;;;;5403195;26;110544;-52
2024/04/13 03:04:03;;;;;;;12.55;11.25;;;17.00;71.90;;;;;;5403326;25;110557;-52
2024/04/13 03:06:29;;;;;;;15.90;11.68;;;16.90;71.80;;;;;;5402091;26;112463;-50
2024/04/13 03:08:54;;;;;;;16.25;12.52;;;16.90;72.00;;;;;;5402133;26;111768;-54
2024/04/13 03:11:21;;;;;;;17.33;12.80;;;16.90;71.90;;;;;;5403340;26;110381;-50
2024/04/13 03:13:49;;;;;;;15.75;11.75;;;16.90;72.20;;;;;;5402989;26;110642;-50
2024/04/13 03:16:14;;;;;;;16.38;12.43;;;16.90;71.70;;;;;;5402023;26;112722;-52
2024/04/13 03:18:49;;;;;;;13.50;12.10;;;17.00;71.50;;;;;;5401868;26;110820;-50
2024/04/13 03:21:15;;;;;;;15.63;11.73;;;17.00;71.50;;;;;;5403503;26;112095;-50
2024/04/13 03:23:41;;;;;;;15.60;11.88;;;16.90;71.60;;;;;;5403052;26;110588;-50
2024/04/13 03:26:08;;;;;;;15.60;11.40;;;16.90;71.60;;;;;;5402445;26;112300;-57
2024/04/13 03:28:34;;;;;;;14.00;11.82;;;16.90;71.60;;;;;;5402122;26;111676;-51
2024/04/13 03:31:01;;;;;;;19.20;11.88;;;16.90;71.70;;;;;;5402881;25;110627;-50
2024/04/13 03:33:26;;;;;;;18.88;11.45;;;16.90;71.70;;;;;;5402980;26;110517;-51
2024/04/13 03:35:52;;;;;;;14.38;10.55;;;16.90;71.70;;;;;;5376495;26;111007;-51
2024/04/13 03:38:18;;;;;;;13.40;11.38;;;16.90;71.60;;;;;;5351870;26;111644;-50
2024/04/13 03:40:47;;;;;;;16.42;11.68;;;16.80;71.90;;;;;;5403002;26;110800;-50
2024/04/13 03:43:14;;;;;;;13.90;11.50;;;16.80;71.90;;;;;;5402690;26;110656;-54
2024/04/13 03:45:41;;;;;;;16.40;11.00;;;16.90;71.50;;;;;;5399932;26;113048;-52
2024/04/13 03:48:07;;;;;;;13.80;11.07;;;16.90;71.50;;;;;;5401593;26;110755;-51
2024/04/13 03:50:39;;;;;;;14.60;10.45;;;16.90;71.50;;;;;;5402964;25;110906;-50
2024/04/13 03:53:05;;;;;;;;;;;16.90;71.00;;;;;;5403394;26;110788;-52
2024/04/13 03:55:30;;;;;;;13.48;10.93;;;16.90;70.80;;;;;;5404136;25;112411;-50
2024/04/13 03:57:56;;;;;;;13.15;9.75;;;17.00;70.50;;;;;;5401682;25;110667;-51
2024/04/13 04:00:21;;;;;;;11.85;9.88;;;17.00;70.40;;;;;;5403488;26;110917;-50
2024/04/13 04:02:47;;;;;;;14.60;10.25;;;17.00;70.60;;;;;;5403745;26;110585;-51
2024/04/13 04:05:13;;;;;;;17.10;10.30;;;17.00;70.30;;;;;;5401424;26;112372;-50
2024/04/13 04:07:38;;;;;;;17.02;12.23;;;16.90;70.90;;;;;;5399738;26;110906;-50
2024/04/13 04:10:05;;;;;;;17.90;10.48;;;16.80;71.90;;;;;;5402528;26;110783;-50
2024/04/13 04:12:30;;;;;;;16.63;10.60;;;16.60;72.10;;;;;;5402700;25;110604;-50
2024/04/13 04:14:56;;;;;;;18.85;10.65;;;16.70;72.00;;;;;;5399529;25;112235;-51
2024/04/13 04:17:22;;;;;;;12.10;10.80;;;16.70;71.80;;;;;;5401314;25;111123;-51
2024/04/13 04:19:47;;;;;;;18.05;10.38;;;16.80;71.30;;;;;;5402461;26;110955;-50
2024/04/13 04:22:13;;;;;;;11.68;10.45;;;16.80;71.60;;;;;;5402246;26;110645;-50
2024/04/13 04:24:39;;;;;;;17.48;12.80;;;16.60;72.10;;;;;;5401552;26;112270;-50
2024/04/13 04:27:05;;;;;;;20.52;14.48;;;16.50;72.50;;;;;;5401399;26;111543;-52
2024/04/13 04:29:34;;;;;;;15.23;11.60;;;16.50;72.40;;;;;;5402399;26;110802;-51
2024/04/13 04:32:00;;;;;;;20.48;11.35;;;16.30;73.00;;;;;;5402342;26;110517;-50
2024/04/13 04:34:26;;;;;;;16.75;11.27;;;16.40;73.30;;;;;;5397508;26;112875;-51
2024/04/13 04:36:51;;;;;;;16.85;11.68;;;16.40;73.30;;;;;;5379885;26;110637;-51
2024/04/13 04:39:17;;;;;;;18.58;11.00;;;16.50;72.80;;;;;;5402027;26;110412;-51
2024/04/13 04:41:47;;;;;;;16.35;10.48;;;16.50;72.80;;;;;;5402404;26;110740;-51
2024/04/13 04:44:12;;;;;;;18.75;10.48;;;16.50;72.50;;;;;;5401072;25;112420;-50
2024/04/13 04:46:38;;;;;;;15.07;10.27;;;16.40;72.70;;;;;;5401101;25;110526;-50
2024/04/13 04:49:06;;;;;;;13.60;10.68;;;16.50;72.70;;;;;;5402217;26;110984;-51
2024/04/13 04:51:32;;;;;;;13.70;10.15;;;16.50;72.70;;;;;;5401996;26;110932;-51
2024/04/13 04:53:58;;;;;;;14.48;10.85;;;16.50;72.30;;;;;;5401488;26;113350;-50
2024/04/13 04:56:26;;;;;;;17.55;10.50;;;16.50;72.50;;;;;;5400870;26;110867;-50
2024/04/13 04:58:52;;;;;;;13.13;10.52;;;16.50;72.60;;;;;;5401952;26;110745;-50
2024/04/13 05:01:17;;;;;;;17.65;10.85;;;16.60;72.20;;;;;;5402050;26;110552;-51
2024/04/13 05:03:43;;;;;;;18.00;9.88;;;16.50;72.60;;;;;;5400848;26;112243;-55
2024/04/13 05:06:09;;;;;;;17.27;10.52;;;16.60;72.20;;;;;;5401771;26;112459;-50
2024/04/13 05:08:35;;;;;;;20.63;11.70;;;16.60;72.50;;;;;;5401637;26;110711;-50
2024/04/13 05:11:01;;;;;;;19.65;11.15;;;16.60;72.90;;;;;;5402006;25;111005;-51
2024/04/13 05:13:28;;;;;;;15.73;11.30;;;16.60;72.50;;;;;;5400389;26;112911;-50
2024/04/13 05:15:54;;;;;;;18.52;10.80;;;16.70;72.50;;;;;;5400765;25;110483;-51
2024/04/13 05:18:20;;;;;;;23.33;12.40;;;16.80;72.50;;;;;;5401061;26;110792;-51
2024/04/13 05:20:45;;;;;;;20.38;11.40;;;16.80;72.70;;;;;;5401503;26;112743;-51
2024/04/13 05:23:11;;;;;;;15.38;11.40;;;16.80;72.30;;;;;;5400786;26;112528;-51
2024/04/13 05:25:37;;;;;;;17.15;11.70;;;16.80;72.50;;;;;;5400956;26;110681;-51
2024/04/13 05:28:02;;;;;;;16.05;11.30;;;16.80;72.60;;;;;;5401301;26;110387;-51
2024/04/13 05:30:29;;;;;;;19.92;11.65;;;16.90;72.60;;;;;;5401724;26;110853;-50
2024/04/13 05:32:55;;;;;;;16.95;11.00;;;17.00;72.20;;;;;;5400548;26;111209;-54
2024/04/13 05:35:20;;;;;;;15.60;11.23;;;17.10;72.00;;;;;;5382862;26;111785;-51
2024/04/13 05:37:46;;;;;;;17.17;10.68;;;17.10;72.10;;;;;;5393426;26;110963;-50
2024/04/13 05:40:13;;;;;;;16.60;10.70;;;17.30;71.40;;;;;;5401548;26;110610;-50
2024/04/13 05:42:39;;;;;;;13.55;10.70;;;17.40;71.10;;;;;;5400188;26;111321;-52
2024/04/13 05:45:05;;;;;;;15.07;9.70;;;17.50;70.10;;;;;;5399966;26;110688;-50
2024/04/13 05:47:32;;;;;;;10.77;9.57;;;17.60;69.70;;;;;;5402281;26;110389;-52
2024/04/13 05:49:58;;;;;;;11.57;9.52;;;17.90;69.30;;;;;;5402113;26;110580;-50
2024/04/13 05:52:24;;;;;;;13.38;10.43;;;17.90;69.00;;;;;;5400940;26;111650;-50
2024/04/13 05:54:50;;;;;;;13.48;9.90;;;18.00;69.10;;;;;;5399985;26;110897;-53
2024/04/13 05:57:16;;;;;;;13.27;9.10;;;18.10;68.20;;;;;;5401843;26;110796;-50
2024/04/13 05:59:41;;;;;;;13.27;8.98;;;18.20;67.90;;;;;;5401745;26;110611;-51
2024/04/13 06:02:08;;;;;;;9.48;8.60;;;18.30;67.70;;;;;;5400972;26;111359;-51
2024/04/13 06:04:35;;;;;;;12.77;8.40;;;18.30;67.50;;;;;;5400769;26;111635;-51
2024/04/13 06:07:01;;;;;;;11.23;8.80;;;18.40;67.30;;;;;;5401560;26;110688;-51
2024/04/13 06:09:26;;;;;;;12.70;8.85;;;18.50;66.30;;;;;;5401516;26;110527;-50
2024/04/13 06:11:52;;;;;;;13.65;8.40;;;18.60;67.00;;;;;;5400270;26;112405;-50
2024/04/13 06:14:18;;;;;;;13.75;9.10;;;18.80;66.50;;;;;;5400501;26;111951;-51
2024/04/13 06:16:44;;;;;;;9.52;8.52;;;18.80;66.70;;;;;;5401266;26;110422;-51
2024/04/13 06:19:13;;;;;;;13.65;8.02;;;18.90;66.10;;;;;;5401412;26;110847;-51
2024/04/13 06:21:39;;;;;;;13.55;8.20;;;19.00;65.60;;;;;;5400240;26;112577;-50
2024/04/13 06:24:05;;;;;;;15.60;8.75;;;19.20;65.30;;;;;;5400138;25;111520;-51
2024/04/13 06:26:30;;;;;;;13.48;8.23;;;19.40;64.80;;;;;;5401415;25;110543;-51
2024/04/13 06:28:56;;;;;;;12.65;8.57;;;19.50;64.70;;;;;;5401275;26;110606;-50
2024/04/13 06:31:22;;;;;;;15.57;8.57;;;19.60;64.50;;;;;;5402124;25;111113;-52
2024/04/13 06:33:48;;;;;;;10.57;8.27;;;19.80;64.50;;;;;;5403141;26;110916;-51
2024/04/13 06:36:13;;;;;;;15.95;7.72;;;19.90;63.40;;;;;;5379141;26;110913;-51
2024/04/13 06:38:39;;;;;;;10.63;8.00;;;20.00;63.70;;;;;;5404574;26;110756;-51
2024/04/13 06:41:05;;;;;;;19.25;9.40;;;20.10;62.80;;;;;;5403066;26;112455;-52
2024/04/13 06:43:30;;;;;;;11.95;7.85;;;20.20;62.60;;;;;;5403479;26;110658;-51
2024/04/13 06:45:57;;;;;;;16.80;8.15;;;20.30;62.90;;;;;;5402524;26;110523;-51
2024/04/13 06:48:22;;;;;;;12.57;7.18;;;20.40;62.60;;;;;;5370257;26;110697;-50
2024/04/13 06:50:48;;;;;;;10.35;6.65;;;20.40;62.60;;;;;;5387259;26;111277;-50
2024/04/13 06:53:14;;;;;;;11.20;7.35;;;20.60;62.00;;;;;;5403266;26;110406;-50
2024/04/13 06:55:39;;;;;;;9.40;7.18;;;20.70;62.00;;;;;;5404250;26;110504;-50
2024/04/13 06:58:05;;;;;;;12.40;7.35;;;20.80;61.80;;;;;;5402220;26;110989;-50
2024/04/13 07:00:31;;;;;;;12.07;6.28;;;20.90;62.00;;;;;;5403308;25;111318;-50
2024/04/13 07:02:58;;;;;;;7.97;6.10;;;21.10;62.40;;;;;;5403326;25;111590;-54
2024/04/13 07:05:23;;;;;;;12.32;6.47;;;21.30;61.60;;;;;;5404095;26;110696;-50
2024/04/13 07:07:49;;;;;;;11.95;6.35;;;21.40;61.00;;;;;;5404432;26;110606;-50
2024/04/13 07:10:15;;;;;;;34.38;7.07;;;21.50;61.20;;;;;;5402859;25;111063;-53
2024/04/13 07:12:40;;;;;;;16.20;5.97;;;21.60;60.30;;;;;;5403128;25;110921;-51
2024/04/13 07:15:07;;;;;;;14.43;6.30;;;21.80;59.70;;;;;;5404200;26;110562;-51
2024/04/13 07:17:32;;;;;;;14.13;5.70;;;21.90;59.50;;;;;;5404245;26;110781;-51
2024/04/13 07:19:58;;;;;;;8.27;5.50;;;22.00;59.30;;;;;;5402911;26;112747;-52
2024/04/13 07:22:24;;;;;;;11.23;5.63;;;22.10;58.80;;;;;;5402542;26;110669;-50
2024/04/13 07:24:49;;;;;;;12.57;5.15;;;22.20;57.40;;;;;;5404072;25;110661;-53
2024/04/13 07:27:15;;;;;;;9.57;4.90;;;22.40;57.60;;;;;;5404436;26;110774;-53
2024/04/13 07:29:40;;;;;;;11.38;4.75;;;22.50;58.00;;;;;;5402801;25;112804;-52
2024/04/13 07:32:06;;;;;;;9.90;4.80;;;22.60;57.50;;;;;;5402828;26;111765;-51
2024/04/13 07:34:32;;;;;;;8.20;4.70;;;22.70;57.10;;;;;;5398801;26;110417;-51
2024/04/13 07:36:58;;;;;;;8.77;4.72;;;22.80;56.20;;;;;;5383892;26;110577;-50
2024/04/13 07:39:24;;;;;;;12.10;4.82;;;22.90;56.20;;;;;;5402789;26;111080;-52
2024/04/13 07:41:49;;;;;;;9.35;4.65;;;23.10;55.70;;;;;;5402380;26;110888;-51
2024/04/13 07:44:15;;;;;;;8.63;5.15;;;23.30;55.60;;;;;;5403873;25;110657;-51
2024/04/13 07:46:40;;;;;;;7.82;4.20;;;23.50;55.40;;;;;;5403347;26;110518;-52
2024/04/13 07:49:06;;;;;;;7.00;4.28;;;23.50;54.00;;;;;;5402797;26;111547;-50
2024/04/13 07:51:32;;;;;;;6.78;4.05;;;23.60;53.90;;;;;;5402367;26;111577;-50
2024/04/13 07:53:57;;;;;;;8.55;4.15;;;23.70;53.40;;;;;;5403767;26;110865;-52
2024/04/13 07:56:23;;;;;;;9.95;4.07;;;23.80;52.50;;;;;;5403750;26;111031;-51
2024/04/13 07:58:49;;;;;;;6.75;4.03;;;24.00;51.80;;;;;;5402650;26;111136;-51
2024/04/13 08:01:15;;;;;;;10.02;3.90;;;24.20;50.30;;;;;;5402621;26;110457;-50
2024/04/13 08:03:40;;;;;;;8.90;3.92;;;24.30;49.70;;;;;;5403729;26;110837;-51
2024/04/13 08:06:06;;;;;;;9.05;3.75;;;24.40;49.20;;;;;;5403735;25;110588;-51
2024/04/13 08:08:32;;;;;;;6.97;3.83;;;24.40;49.50;;;;;;5400642;26;111216;-50
2024/04/13 08:10:57;;;;;;;8.82;3.90;;;24.60;48.70;;;;;;5402205;26;110741;-50
2024/04/13 08:13:23;;;;;;;9.20;3.85;;;24.60;48.70;;;;;;5403387;25;110660;-51
2024/04/13 08:15:49;;;;;;;7.65;3.80;;;24.60;49.20;;;;;;5403721;26;110641;-52
2024/04/13 08:18:15;;;;;;;6.82;3.83;;;24.90;48.50;;;;;;5402542;26;112387;-51
2024/04/13 08:20:41;;;;;;;8.48;4.30;;;25.00;47.50;;;;;;5402135;25;111561;-51
2024/04/13 08:23:07;;;;;;;9.30;4.05;;;25.00;47.30;;;;;;5403510;25;110568;-51
2024/04/13 08:25:33;;;;;;;9.05;4.13;;;25.10;47.20;;;;;;5403479;26;110523;-52
2024/04/13 08:27:59;;;;;;;9.50;4.20;;;25.00;47.10;;;;;;5466161;20;112561;-50
2024/04/13 08:30:24;;;;;;;9.32;4.10;;;25.10;46.70;;;;;;5474517;25;111584;-50
2024/04/13 08:32:50;;;;;;;8.90;3.65;;;25.10;46.60;;;;;;5475992;25;110411;-50
2024/04/13 08:35:16;;;;;;;7.85;4.22;;;25.00;46.50;;;;;;5459279;25;111199;-50
2024/04/13 08:37:41;;;;;;;8.35;4.15;;;25.10;46.40;;;;;;5465140;25;111019;-50
2024/04/13 08:40:13;;;;;;;9.90;4.25;;;25.10;46.90;;;;;;5474578;25;112466;-50
2024/04/13 08:42:40;;;;;;;;;;;25.50;47.00;;;;;;5476340;25;110615;-50
2024/04/13 08:45:10;;;;;;;8.13;3.65;;;25.90;45.70;;;;;;5477249;25;110685;-50
2024/04/13 08:47:39;;;;;;;7.28;3.53;;;25.90;44.90;;;;;;5450807;25;111283;-50
2024/04/13 08:50:06;;;;;;;9.77;4.38;;;26.20;43.80;;;;;;5437631;25;110593;-50
2024/04/13 08:52:32;;;;;;;7.85;3.70;;;26.20;44.60;;;;;;5438742;25;110950;-51
2024/04/13 08:54:58;;;;;;;6.13;3.72;;;26.10;43.70;;;;;;5437647;25;110666;-50
2024/04/13 08:57:29;;;;;;;7.65;3.72;;;26.10;44.20;;;;;;5438741;25;112618;-50
2024/04/13 08:59:59;;;;;;;8.77;4.28;;;26.00;43.70;;;;;;5444830;25;111886;-50
2024/04/13 09:02:30;;;;;;;6.85;3.80;;;26.40;43.60;;;;;;5438552;25;110521;-50
2024/04/13 09:04:56;;;;;;;7.25;3.83;;;26.50;43.80;;;;;;5438541;25;110587;-51
2024/04/13 09:07:21;;;;;;;9.43;4.22;;;26.80;43.70;;;;;;5437351;25;112444;-50
2024/04/13 09:09:48;;;;;;;9.75;3.90;;;27.00;42.80;;;;;;5437415;25;111067;-50
2024/04/13 09:12:15;;;;;;;4.78;4.07;;;26.80;42.70;;;;;;5438343;25;110579;-50
2024/04/13 09:14:41;;;;;;;7.80;3.83;;;27.00;43.40;;;;;;5438632;25;110500;-51
2024/04/13 09:17:08;;;;;;;11.25;4.20;;;26.90;42.40;;;;;;5437856;25;111178;-50
2024/04/13 09:19:34;;;;;;;6.93;4.18;;;26.90;42.50;;;;;;5437136;25;111531;-50
2024/04/13 09:22:01;;;;;;;7.60;4.15;;;26.40;42.60;;;;;;5438035;25;111029;-51
2024/04/13 09:24:26;;;;;;;11.27;4.53;;;26.40;43.30;;;;;;5438205;25;110614;-51
2024/04/13 09:26:53;;;;;;;7.63;4.18;;;26.70;42.20;;;;;;5446737;25;111080;-50
2024/04/13 09:29:26;;;;;;;8.98;4.13;;;26.90;42.40;;;;;;5421860;25;110616;-50
2024/04/13 09:31:52;;;;;;;8.27;4.10;;;27.40;41.20;;;;;;5437967;25;110744;-50
2024/04/13 09:34:17;;;;;;;7.57;4.05;;;27.40;41.30;;;;;;5437880;25;110896;-50
2024/04/13 09:36:43;;;;;;;6.93;3.80;;;27.40;40.50;;;;;;5449640;25;113177;-50
2024/04/13 09:39:19;;;;;;;8.15;4.22;;;27.80;41.50;;;;;;5473742;25;110674;-50
2024/04/13 09:41:45;;;;;;;11.55;4.30;;;28.20;40.40;;;;;;5461927;25;110733;-50
2024/04/13 09:44:10;;;;;;;9.35;4.50;;;28.30;41.00;;;;;;5437736;25;110641;-50
2024/04/13 09:46:36;;;;;;;7.65;4.43;;;28.10;41.10;;;;;;5461798;25;111080;-51
2024/04/13 09:49:02;;;;;;;6.82;4.50;;;28.20;41.00;;;;;;5436493;25;111552;-50
2024/04/13 09:51:27;;;;;;;8.80;4.78;;;28.20;41.30;;;;;;5440199;25;110899;-50
2024/04/13 09:53:54;;;;;;;8.88;5.25;;;28.20;40.30;;;;;;5442402;25;110971;-50
2024/04/13 09:56:21;;;;;;;13.65;5.30;;;27.90;40.40;;;;;;5456763;25;111018;-50
2024/04/13 09:58:49;;;;;;;7.10;4.53;;;28.00;40.50;;;;;;5432694;25;111118;-50
2024/04/13 10:01:15;;;;;;;7.38;5.82;;;28.20;40.20;;;;;;5433958;25;110397;-50
2024/04/13 10:03:41;;;;;;;11.48;4.93;;;28.10;39.90;;;;;;5434081;25;111264;-50
2024/04/13 10:06:14;;;;;;;7.28;4.60;;;28.40;40.20;;;;;;5437210;25;112910;-50
2024/04/13 10:08:41;;;;;;;7.93;6.18;;;28.70;39.40;;;;;;5438025;25;110817;-50
2024/04/13 10:11:08;;;;;;;6.70;5.40;;;29.20;39.20;;;;;;5439809;25;110614;-50
2024/04/13 10:13:39;;;;;;;7.82;4.88;;;29.30;39.10;;;;;;5439864;25;111409;-50
2024/04/13 10:16:05;;;;;;;8.63;5.10;;;29.20;39.40;;;;;;5439054;25;111054;-50
2024/04/13 10:18:31;;;;;;;11.25;4.68;;;29.10;39.20;;;;;;5439176;25;111580;-50
2024/04/13 10:21:02;;;;;;;8.00;5.10;;;29.10;39.00;;;;;;5407776;25;110592;-50
2024/04/13 10:23:36;;;;;;;8.75;4.90;;;29.90;37.50;;;;;;5440419;25;110525;-50
2024/04/13 10:26:02;;;;;;;5.38;4.75;;;29.70;38.00;;;;;;5439334;25;111600;-50
2024/04/13 10:28:27;;;;;;;8.88;5.38;;;31.80;36.40;;;;;;5439196;25;111072;-50
2024/04/13 10:30:56;;;;;;;9.05;4.65;;;34.90;31.30;;;;;;5440233;25;110633;-50
2024/04/13 10:33:31;;;;;;;10.02;5.45;;;32.90;33.30;;;;;;5440140;25;110768;-50
2024/04/13 10:35:58;;;;;;;10.43;4.90;;;32.10;34.20;;;;;;5439795;25;111181;-51
2024/04/13 10:38:28;;;;;;;7.63;4.93;;;31.00;35.40;;;;;;5475829;25;110908;-50
2024/04/13 10:40:55;;;;;;;8.77;5.25;;;30.70;36.50;;;;;;5477009;25;110509;-51
2024/04/13 10:43:22;;;;;;;6.40;4.45;;;30.70;36.00;;;;;;5425633;25;110798;-50
2024/04/13 10:45:58;;;;;;;11.23;5.20;;;30.30;36.90;;;;;;5475982;25;111146;-50
2024/04/13 10:48:25;;;;;;;7.55;4.47;;;30.80;35.80;;;;;;5475751;25;112806;-50
2024/04/13 10:50:55;;;;;;;9.60;8.15;;;31.80;35.20;;;;;;5477083;25;110558;-50
2024/04/13 10:53:23;;;;;;;10.13;5.30;;;32.00;34.60;;;;;;5476997;25;110754;-50
2024/04/13 10:55:50;;;;;;;9.90;5.03;;;31.90;35.10;;;;;;5476095;25;111005;-50
2024/04/13 10:58:16;;;;;;;8.20;5.10;;;32.00;34.20;;;;;;5475585;25;112098;-50
2024/04/13 11:00:49;;;;;;;7.15;4.30;;;32.60;34.60;;;;;;5476888;25;112226;-50
2024/04/13 11:03:16;;;;;;;6.78;4.45;;;32.90;33.80;;;;;;5476564;25;111021;-51
2024/04/13 11:05:43;;;;;;;7.95;4.50;;;32.90;33.80;;;;;;5475689;25;112385;-51
2024/04/13 11:08:09;;;;;;;8.63;4.88;;;33.20;33.30;;;;;;5475633;25;110801;-51
2024/04/13 11:10:39;;;;;;;6.07;5.47;;;32.80;33.60;;;;;;5476615;25;110500;-50
2024/04/13 11:13:05;;;;;;;4.78;4.30;;;32.40;34.10;;;;;;5477023;25;111018;-50
2024/04/13 11:15:32;;;;;;;8.07;5.07;;;32.60;33.50;;;;;;5475271;25;112797;-50
2024/04/13 11:17:58;;;;;;;8.00;5.00;;;32.70;33.30;;;;;;5474734;25;111544;-51
2024/04/13 11:20:27;;;;;;;6.82;4.88;;;31.80;34.60;;;;;;5476612;25;110628;-51
2024/04/13 11:22:54;;;;;;;6.53;4.80;;;32.00;35.70;;;;;;5476989;25;110799;-51
2024/04/13 11:25:20;;;;;;;8.68;4.63;;;32.90;34.60;;;;;;5475396;25;112330;-51
2024/04/13 11:27:45;;;;;;;8.07;4.45;;;32.90;33.80;;;;;;5475595;25;110484;-50
2024/04/13 11:30:12;;;;;;;7.70;4.50;;;32.60;33.80;;;;;;5476578;25;110800;-51
2024/04/13 11:32:38;;;;;;;9.10;5.03;;;32.50;34.80;;;;;;5476423;25;110876;-50
2024/04/13 11:35:11;;;;;;;10.75;4.78;;;31.60;36.30;;;;;;5429137;25;112779;-51
2024/04/13 11:37:36;;;;;;;5.35;4.63;;;32.10;34.80;;;;;;5464819;25;110927;-51
2024/04/13 11:40:03;;;;;;;5.10;4.35;;;32.20;34.80;;;;;;5443948;25;111308;-51
2024/04/13 11:42:29;;;;;;;7.07;4.60;;;32.40;34.20;;;;;;5476705;25;110782;-50
2024/04/13 11:44:55;;;;;;;9.32;4.85;;;32.10;34.20;;;;;;5475322;25;112412;-50
2024/04/13 11:47:20;;;;;;;4.93;4.00;;;31.90;34.30;;;;;;5475121;25;111705;-50
2024/04/13 11:49:46;;;;;;;6.68;4.40;;;31.90;34.50;;;;;;5476187;25;110511;-51
2024/04/13 11:52:17;;;;;;;5.93;4.30;;;32.40;34.70;;;;;;5476334;25;110628;-50
2024/04/13 11:54:43;;;;;;;9.50;4.67;;;32.20;34.00;;;;;;5475241;25;111049;-51
2024/04/13 11:57:12;;;;;;;7.00;4.00;;;31.90;33.90;;;;;;5475458;25;110746;-51
2024/04/13 11:59:38;;;;;;;9.80;4.32;;;31.90;33.60;;;;;;5476168;25;110634;-50
2024/04/13 12:02:04;;;;;;;5.50;4.30;;;32.30;33.20;;;;;;5476179;25;110820;-51
2024/04/13 12:04:30;;;;;;;7.10;4.03;;;32.20;33.60;;;;;;5475220;25;112537;-50
2024/04/13 12:06:56;;;;;;;5.85;4.38;;;32.90;32.50;;;;;;5474959;25;110967;-50
2024/04/13 12:09:22;;;;;;;7.03;4.30;;;32.40;32.90;;;;;;5458658;25;113062;-50
2024/04/13 12:11:47;;;;;;;7.10;4.25;;;32.50;34.10;;;;;;5468070;25;110469;-51
2024/04/13 12:14:14;;;;;;;5.18;4.28;;;32.80;34.50;;;;;;5474922;25;111106;-51
2024/04/13 12:16:41;;;;;;;5.82;4.53;;;33.10;33.90;;;;;;5474748;25;111660;-51
2024/04/13 12:19:06;;;;;;;6.25;4.55;;;32.50;34.30;;;;;;5475994;25;110451;-51
2024/04/13 12:21:32;;;;;;;7.45;4.75;;;31.80;35.30;;;;;;5476137;25;110792;-50